M I D A S
Marine Information and Data Acquisition System
Tripno 653 of the Zeeleeuw from 2004-02-23 08:00:59 to 2004-02-23 13:38:13
Back to CruiseResearch ActivitiesStationsMapUnderway DataData graphs

EquipmentUnitsComment
TimeDGPSUTC
LatitudeDGPSDM.mWGS84
LongitudeDGPSDM.mWGS84
HeadingGyrodeg 
SOGDGPSknotsSpeed over ground
COGDGPSdegCourse over ground
DepthEcho soundermeters200 kHz
Missing or incorrect values are displayed as -999
Navigation data collected by the RV Zeeleeuw from 2004-02-23 08:00:59 to 2004-02-23 13:38:13
Time Latitude Longitude Heading SOG COG Depth
2004-02-23 08:02:04 51°13.593 2°56.106 114.8   202 5.8
2004-02-23 08:03:05 51°13.597 2°56.086 113.4 2.1 290 -999
2004-02-23 08:04:05 51°13.619 2°56.001 122.2 4.4 297 -999
2004-02-23 08:05:05 51°13.662 2°55.889 125.7 5.2 302 -999
2004-02-23 08:06:05 51°13.701 2°55.765 111.7 5.4 289 -999
2004-02-23 08:07:03 51°13.711 2°55.752 61.9 0.9 70 12.2
2004-02-23 08:08:05 51°13.713 2°55.745 24.9 2.6 18 -999
2004-02-23 08:09:04 51°13.778 2°55.685 327.3 5.9 324 8.4
2004-02-23 08:10:04 51°13.88 2°55.588 339.6 7.7 334 8.3
2004-02-23 08:11:03 51°14.002 2°55.503 342 8.3 336 8.9
2004-02-23 08:12:03 51°14.132 2°55.407 340.2 9.5 333 8.3
2004-02-23 08:13:04 51°14.275 2°55.245 321.9 11.3 314 9
2004-02-23 08:14:05 51°14.386 2°54.983 308.4 11.6 299 -999
2004-02-23 08:15:03 51°14.402 2°54.716 273 9.4 263 9.1
2004-02-23 08:16:03 51°14.365 2°54.481 259.8 9 247 8.1
2004-02-23 08:17:04 51°14.281 2°54.185 244.5 13.7 240 7.9
2004-02-23 08:18:03 51°14.166 2°53.864 247.5 14.6 240 7.4
2004-02-23 08:19:03 51°14.045 2°53.532 244.7 14.6 235 7.5
2004-02-23 08:20:04 51°13.933 2°53.178 251.8 15.3 236 7.7
2004-02-23 08:21:03 51°13.819 2°52.83 245.4 15.4 241 8.3
2004-02-23 08:22:03 51°13.696 2°52.48 248.6 14.2 239 8.5
2004-02-23 08:23:04 51°13.574 2°52.116 244.2 15.5 243 8.5
2004-02-23 08:24:03 51°13.454 2°51.768 246.4 15.1 241 9
2004-02-23 08:25:03 51°13.33 2°51.417 242.7 15.5 236 8.9
2004-02-23 08:26:03 51°13.205 2°51.062 246.6 14.8 242 9.1
2004-02-23 08:27:04 51°13.081 2°50.699 247.5 15.3 241 9.2
2004-02-23 08:28:03 51°12.96 2°50.352 247 15 241 9.4
2004-02-23 08:29:04 51°12.833 2°49.988 247.7 15.5 244 9.4
2004-02-23 08:30:04 51°12.708 2°49.634 246.4 15.2 237 9.6
2004-02-23 08:31:03 51°12.587 2°49.28 245.2 15.5 242 9.4
2004-02-23 08:32:03 51°12.465 2°48.918 248.6 15.4 244 9.9
2004-02-23 08:33:03 51°12.342 2°48.556 247.9 15.5 240 10
2004-02-23 08:34:03 51°12.221 2°48.195 247.7 15.1 244 10.4
2004-02-23 08:35:03 51°12.097 2°47.835 244.9 15.4 241 10
2004-02-23 08:36:03 51°11.974 2°47.482 250.2 15 243 10
2004-02-23 08:37:04 51°11.848 2°47.126 245.3 15.2 238 9.6
2004-02-23 08:38:04 51°11.727 2°46.773 244.1 15.5 242 9.7
2004-02-23 08:39:03 51°11.614 2°46.423 248.7 14.8 242 9.7
2004-02-23 08:40:03 51°11.497 2°46.068 245.8 15.3 248 9.4
2004-02-23 08:41:03 51°11.377 2°45.72 245.8 15.3 246 9.2
2004-02-23 08:42:03 51°11.258 2°45.373 248.1 14.9 242 8.9
2004-02-23 08:43:04 51°11.143 2°45.017 245.2 14.9 240 8.5
2004-02-23 08:44:03 51°11.031 2°44.674 247.2 14.1 241 8.3
2004-02-23 08:45:03 51°10.91 2°44.336 247.4 14.6 243 5.7
2004-02-23 08:46:03 51°10.804 2°43.99 249.7 14.9 241 7.6
2004-02-23 08:47:03 51°10.686 2°43.662 243.8 13.5 240 7.5
2004-02-23 08:48:04 51°10.621 2°43.302 265.6 14.1 262 7.4
2004-02-23 08:49:03 51°10.568 2°42.942 263.6 14 256 7.9
2004-02-23 08:50:04 51°10.515 2°42.561 266.3 14.6 253 8
2004-02-23 08:51:04 51°10.471 2°42.182 272.4 14.2 265 8.3
2004-02-23 08:52:04 51°10.438 2°41.791 270.5 14.8 261 9.1
2004-02-23 08:53:03 51°10.403 2°41.401 269.7 14.8 260 9.6
2004-02-23 08:54:03 51°10.366 2°41.006 269.1 14.9 261 9.8
2004-02-23 08:55:04 51°10.327 2°40.599 267.8 15.4 260 10.5
2004-02-23 08:56:05 51°10.289 2°40.193 267.4 15.3 260 11
2004-02-23 08:57:03 51°10.254 2°39.806 270 15.2 265 11.6
2004-02-23 08:58:03 51°10.213 2°39.407 267.2 15.2 260 12.5
2004-02-23 08:59:04 51°10.17 2°39.003 266.9 15.1 259 13.7
2004-02-23 09:00:03 51°10.131 2°38.617 266.9 14.9 258 14
2004-02-23 09:01:04 51°10.09 2°38.22 266.7 15.4 261 14.9
2004-02-23 09:02:04 51°10.051 2°37.828 266.6 14.6 261 15.4
2004-02-23 09:03:03 51°10.002 2°37.442 263.4 15.3 254 15.9
2004-02-23 09:04:04 51°9.955 2°37.043 265.3 14.8 260 16.2
2004-02-23 09:05:03 51°9.909 2°36.653 268.5 15.3 263 16.3
2004-02-23 09:06:04 51°9.923 2°36.253 292.5 14.7 284 16.4
2004-02-23 09:07:05 51°10.037 2°35.921 319.3 13.7 314 16
2004-02-23 09:08:03 51°10.221 2°35.813 5 11.8   9.2
2004-02-23 09:09:03 51°10.419 2°35.849 17.2 12.2 8 9.5
2004-02-23 09:10:03 51°10.618 2°35.886 15.1 11.7 8 9.1
2004-02-23 09:11:04 51°10.813 2°35.916 17.7 11.7 10 9.3
2004-02-23 09:12:03 51°10.991 2°36.023 33.3 11.6 26 9
2004-02-23 09:13:04 51°11.164 2°36.166 38.8 11.8 33 9.7
2004-02-23 09:14:04 51°11.323 2°36.337 42.1 11.5 34 9.4
2004-02-23 09:15:04 51°11.476 2°36.523 50.2 11.6 49 9.9
2004-02-23 09:16:04 51°11.589 2°36.767 58.9 11.3 57 10
2004-02-23 09:17:04 51°11.7 2°37.008 57.2 11.6 54 10.7
2004-02-23 09:18:04 51°11.808 2°37.256 59.4 11.6 59 11.5
2004-02-23 09:19:04 51°11.91 2°37.511 59.6 11.6 54 12.1
2004-02-23 09:20:04 51°12.012 2°37.77 59.5 11.7 59 12.4
2004-02-23 09:21:04 51°12.116 2°38.026 59.8 11.8 61 12.4
2004-02-23 09:22:04 51°12.215 2°38.295 62.3 12 62 11.8
2004-02-23 09:23:04 51°12.317 2°38.562 61.5 12 59 12.1
2004-02-23 09:24:04 51°12.418 2°38.827 61.2 11.7 60 12
2004-02-23 09:25:04 51°12.522 2°39.093 61.6 12 61 12.3
2004-02-23 09:26:04 51°12.624 2°39.359 61.7 12.1 58 11.9
2004-02-23 09:27:04 51°12.728 2°39.628 60.9 11.7 58 11.1
2004-02-23 09:28:04 51°12.828 2°39.897 61.3 11.9 58 12.5
2004-02-23 09:29:04 51°12.93 2°40.166 61.4 11.8 60 11.7
2004-02-23 09:30:04 51°13.032 2°40.429 61 11.6 63 11.9
2004-02-23 09:31:04 51°13.132 2°40.69 61.3 11.4 59 12.4
2004-02-23 09:32:04 51°13.232 2°40.95 62.5 11.3 60 12.2
2004-02-23 09:33:04 51°13.333 2°41.208 60.5 11.6 59 12.7
2004-02-23 09:34:04 51°13.433 2°41.47 60.7 11.5 58 13.2
2004-02-23 09:35:04 51°13.532 2°41.731 62.4 11.4 60 13
2004-02-23 09:36:04 51°13.632 2°41.988 61 11.7 58 13.4
2004-02-23 09:37:04 51°13.732 2°42.246 61.2 11.5 57 13.5
2004-02-23 09:38:04 51°13.829 2°42.51 64.3 11.3 62 13.6
2004-02-23 09:39:04 51°13.917 2°42.781 63.8 11.7 61 13.5
2004-02-23 09:40:04 51°14.008 2°43.052 63.9 11.7 60 13.7
2004-02-23 09:41:04 51°14.097 2°43.325 64.5 11.4 64 14
2004-02-23 09:42:04 51°14.187 2°43.595 65.5 11.5 61 13.2
2004-02-23 09:43:04 51°14.277 2°43.867 65.2 12 62 13.1
2004-02-23 09:44:04 51°14.367 2°44.142 64.6 11.8 67 12.6
2004-02-23 09:45:04 51°14.457 2°44.42 67.3 12 68 12.1
2004-02-23 09:46:04 51°14.539 2°44.705 71.7 11.9 67 11.9
2004-02-23 09:47:04 51°14.611 2°45.003 70.8 12 70 10.6
2004-02-23 09:48:04 51°14.681 2°45.304 72.1 12.2 72 10.3
2004-02-23 09:49:04 51°14.753 2°45.6 72.7 12.1 70 9.7
2004-02-23 09:50:04 51°14.824 2°45.898 72 11.9 67 9.5
2004-02-23 09:51:04 51°14.895 2°46.197 71.8 12.3 73 8.5
2004-02-23 09:52:04 51°14.967 2°46.495 71.1 12 68 8.6
2004-02-23 09:53:04 51°15.041 2°46.793 69.6 12.3 69 8.4
2004-02-23 09:54:04 51°15.113 2°47.092 71.1 12 70 8.9
2004-02-23 09:55:04 51°15.182 2°47.393 72.3 11.7 69 9
2004-02-23 09:56:04 51°15.253 2°47.693 72.2 12.4 71 8.9
2004-02-23 09:57:04 51°15.322 2°47.994 71.8 12.2 72 8.8
2004-02-23 09:58:04 51°15.389 2°48.299 70.4 12.2 67 9.3
2004-02-23 09:59:04 51°15.461 2°48.605 69.6 12.2 67 9.8
2004-02-23 10:00:04 51°15.53 2°48.918 72.8 12.8 67 10.1
2004-02-23 10:01:04 51°15.599 2°49.23 70.9 12.4 67 10.9
2004-02-23 10:02:04 51°15.668 2°49.545 70.7 12.7 75 11.2
2004-02-23 10:03:04 51°15.737 2°49.859 70.3 12.1 74 11.3
2004-02-23 10:04:04 51°15.805 2°50.163 72.4 11.7 66 11.7
2004-02-23 10:05:04 51°15.874 2°50.464 71.1 12 71 12.3
2004-02-23 10:06:04 51°15.945 2°50.773 70.3 12.1 75 12.3
2004-02-23 10:07:04 51°16.016 2°51.078 71.1 12.4 74 12.1
2004-02-23 10:08:04 51°16.083 2°51.386 70.4 12.3 73 12.1
2004-02-23 10:09:04 51°16.151 2°51.695 70.3 12.5 67 12.1
2004-02-23 10:10:04 51°16.213 2°52.005 72.4 12.6 74 11.8
2004-02-23 10:11:04 51°16.34 2°52.202 21.5 10.9 8 11.3
2004-02-23 10:12:04 51°16.524 2°52.184 10.5 11.4 2 10.7
2004-02-23 10:13:04 51°16.712 2°52.197 11.9 11.6 3 9.4
2004-02-23 10:14:04 51°16.896 2°52.221 14.8 10.3 7 8.9
2004-02-23 10:15:04 51°17.074 2°52.235 11.8 11 3 9.5
2004-02-23 10:16:04 51°17.258 2°52.249 11.7 10.7 4 9.5
2004-02-23 10:17:04 51°17.439 2°52.262 12.3 10.2 3 -999
2004-02-23 10:18:04 51°17.618 2°52.288 18.9 11.3 9 9.9
2004-02-23 10:19:04 51°17.801 2°52.358 23.9 11 14 9.5
2004-02-23 10:20:04 51°17.977 2°52.446 26.4 11 19 10.1
2004-02-23 10:21:04 51°18.149 2°52.541 30.9 10.9 20 10
2004-02-23 10:22:04 51°18.318 2°52.651 32.4 11 27 10.3
2004-02-23 10:23:04 51°18.485 2°52.769 32.3 11.1 24 10.7
2004-02-23 10:24:04 51°18.658 2°52.888 30.1 11.3 23 11
2004-02-23 10:25:04 51°18.809 2°53.057 49.8 11.1 47 11.1
2004-02-23 10:26:04 51°18.902 2°53.322 64.2 11.6 61 11.1
2004-02-23 10:27:04 51°18.975 2°53.608 69.4 11.6 66 11.1
2004-02-23 10:28:04 51°19.042 2°53.898 67.5 11.6 72 11.2
2004-02-23 10:29:04 51°19.113 2°54.183 66.6 11.4 71 11.2
2004-02-23 10:30:04 51°19.185 2°54.463 68.4 11.2 69 11.2
2004-02-23 10:31:04 51°19.257 2°54.746 66.5 11.7 67 11.3
2004-02-23 10:32:04 51°19.33 2°55.03 69.4 11.7 66 10.9
2004-02-23 10:33:04 51°19.399 2°55.316 67.9 11.5 69 11.5
2004-02-23 10:34:04 51°19.467 2°55.602 67.7 11.5 65 10.9
2004-02-23 10:35:04 51°19.534 2°55.892 67.6 11.4 71 11.4
2004-02-23 10:36:04 51°19.605 2°56.181 67.5 11.4 71 11.1
2004-02-23 10:37:04 51°19.676 2°56.466 67.4 11.5 68 11.1
2004-02-23 10:38:04 51°19.744 2°56.75 67.4 11.1 71 11.1
2004-02-23 10:39:04 51°19.814 2°57.033 69.8 11.5 65 10.9
2004-02-23 10:40:04 51°19.884 2°57.321 67.5 11.3 74 10.4
2004-02-23 10:41:04 51°19.959 2°57.608 66.4 11.6 67 10
2004-02-23 10:42:04 51°20.033 2°57.895 68.5 12.1 66 10.6
2004-02-23 10:43:04 51°20.106 2°58.184 69.5 12 66 10.6
2004-02-23 10:44:04 51°20.181 2°58.475 68.3 11.7 68 10.5
2004-02-23 10:45:04 51°20.256 2°58.767 68.2 11.8 64 10.1
2004-02-23 10:46:04 51°20.335 2°59.058 68.8 12.1 64 10.7
2004-02-23 10:47:04 51°20.411 2°59.35 68.7 11.9 67 10.3
2004-02-23 10:48:04 51°20.478 2°59.652 74.5 11.8 78 10.3
2004-02-23 10:49:04 51°20.535 2°59.961 74.5 12 76 10.1
2004-02-23 10:50:04 51°20.595 3°0.268 73.6 11.8 77 10.2
2004-02-23 10:51:04 51°20.654 3°0.573 72.6 11.8 72 9.9
2004-02-23 10:52:04 51°20.714 3°0.876 74 12.5 77 9.5
2004-02-23 10:53:04 51°20.777 3°1.178 73.3 12 66 10
2004-02-23 10:54:04 51°20.833 3°1.489 72.1 12 75 9.5
2004-02-23 10:55:04 51°20.895 3°1.796 72.6 12.2 73 10.1
2004-02-23 10:56:04 51°20.955 3°2.101 74.9 12.2 69 9.8
2004-02-23 10:57:04 51°21.012 3°2.404 74.7 12.1 72 10.8
2004-02-23 10:58:04 51°21.074 3°2.705 72.5 11.7 72 10.3
2004-02-23 10:59:04 51°21.134 3°3.008 71.8 11.6 71 9.9
2004-02-23 11:00:04 51°21.192 3°3.311 73.3 12.1 77 10.1
2004-02-23 11:01:04 51°21.254 3°3.612 73.3 12.1 78 10.5
2004-02-23 11:02:04 51°21.315 3°3.914 72.3 12.1 71 10.4
2004-02-23 11:03:04 51°21.374 3°4.219 73.7 12.4 76 10.6
2004-02-23 11:04:04 51°21.43 3°4.53 73.7 12 78 10.3
2004-02-23 11:05:04 51°21.492 3°4.837 73 12 76 10.5
2004-02-23 11:06:04 51°21.554 3°5.148 74.7 12.4 76 10.8
2004-02-23 11:07:04 51°21.615 3°5.462 73.8 12.1 73 10.7
2004-02-23 11:08:04 51°21.677 3°5.775 72.9 12.5 71 10.6
2004-02-23 11:09:04 51°21.737 3°6.089 71.3 12.3 80 10.9
2004-02-23 11:10:04 51°21.792 3°6.406 77.4 12.4 77 10.9
2004-02-23 11:11:04 51°21.84 3°6.727 79.1 12.8 79 10.9
2004-02-23 11:12:04 51°21.892 3°7.047 74.5 12.4 76 11.3
2004-02-23 11:13:04 51°21.934 3°7.369 83.4 12.7 87 11.3
2004-02-23 11:14:04 51°21.964 3°7.699 82.2 12.7 80 11.4
2004-02-23 11:15:04 51°21.994 3°8.031 83.5 12.6 78 11.4
2004-02-23 11:16:04 51°22.013 3°8.366 86.2 12.9 86 11.5
2004-02-23 11:17:04 51°22.03 3°8.703 84 12.7 80 11.4
2004-02-23 11:18:04 51°22.052 3°9.038 85 12.8 86 11.7
2004-02-23 11:19:04 51°22.093 3°9.369 81.1 12.8 76 12.5
2004-02-23 11:20:04 51°22.142 3°9.698 74 12.7 71 13
2004-02-23 11:21:04 51°22.204 3°10.018 74.5 12.7 72 13.5
2004-02-23 11:22:04 51°22.264 3°10.339 76.9 12.7 73 14.1
2004-02-23 11:23:04 51°22.327 3°10.657 75.5 12.7 73 17.4
2004-02-23 11:24:04 51°22.391 3°10.973 75.6 12.5 69 15.1
2004-02-23 11:25:04 51°22.454 3°11.286 76.6 12.4 71 15.3
2004-02-23 11:26:04 51°22.52 3°11.595 72.6 11.9 73 14.5
2004-02-23 11:27:04 51°22.585 3°11.908 75.3 13 75 14
2004-02-23 11:28:04 51°22.647 3°12.222 76.3 12.4 76 13.5
2004-02-23 11:29:04 51°22.709 3°12.544 75.4 12.8 71 12.7
2004-02-23 11:30:04 51°22.781 3°12.859 65.9 12.7 61 12.6
2004-02-23 11:31:04 51°22.959 3°12.994 19.5 12.3 14 11.3
2004-02-23 11:32:04 51°23.164 3°13.065 19.9 12.4 13 10.8
2004-02-23 11:33:04 51°23.369 3°13.139 19.7 12.5 12 11.2
2004-02-23 11:34:04 51°23.571 3°13.203 16.1 12.5 6 11.9
2004-02-23 11:35:04 51°23.777 3°13.202 354.5 12.8 343 11.5
2004-02-23 11:36:04 51°23.925 3°12.968 310.4 12.8 299 12.1
2004-02-23 11:37:04 51°23.969 3°12.615 285.9 13.9 278 12.5
2004-02-23 11:38:04 51°24.008 3°12.254 290.4 13.7 279 13.1
2004-02-23 11:39:04 51°24.055 3°11.895 289.4 13.9 281 15.4
2004-02-23 11:40:04 51°24.093 3°11.531 284.5 13.9 276 16.6
2004-02-23 11:41:04 51°24.118 3°11.161 282.3 14 275 17.7
2004-02-23 11:42:04 51°24.156 3°10.796 289.5 13.9 280 18
2004-02-23 11:43:04 51°24.206 3°10.45 291.9 13.3 284 17.9
2004-02-23 11:44:04 51°24.257 3°10.103 289.7 13.1 283 17.8
2004-02-23 11:45:04 51°24.288 3°9.75 283.9 13.4 276 17.2
2004-02-23 11:46:04 51°24.302 3°9.392 279 13.7 272 15.9
2004-02-23 11:47:04 51°24.302 3°9.033 278.1 13.5 264 15.3
2004-02-23 11:48:04 51°24.305 3°8.68 277 13.4 269 14.9
2004-02-23 11:49:04 51°24.301 3°8.323 277.6 13.5 268 14.1
2004-02-23 11:50:04 51°24.29 3°7.96 274.4 13.9 266 13.9
2004-02-23 11:51:04 51°24.256 3°7.602 268.1 13.5 258 14.7
2004-02-23 11:52:04 51°24.221 3°7.24 268.5 13.6 262 15.1
2004-02-23 11:53:04 51°24.183 3°6.881 263 13.9 261 16.3
2004-02-23 11:54:04 51°24.124 3°6.522 262.4 14 254 17.5
2004-02-23 11:55:04 51°24.066 3°6.16 262.3 14.1 256 18.6
2004-02-23 11:56:04 51°24.057 3°5.8 291 13.4 281 18.6
2004-02-23 11:57:04 51°24.134 3°5.481 307.5 12.9 298 18.7
2004-02-23 11:58:04 51°24.229 3°5.172 304.8 13.1 296 18.4
2004-02-23 11:59:04 51°24.322 3°4.86 305.1 12.9 294 18.5
2004-02-23 12:00:04 51°24.409 3°4.542 304.7 13 294 18.1
2004-02-23 12:01:04 51°24.496 3°4.219 303.7 13.3 292 17.8
2004-02-23 12:02:04 51°24.581 3°3.901 303.4 12.8 294 18.2
2004-02-23 12:03:04 51°24.665 3°3.583 303.8 13.4 292 17.5
2004-02-23 12:04:04 51°24.738 3°3.255 297.3 13.1 285 17.6
2004-02-23 12:05:04 51°24.777 3°2.903 282.3 13.7 274 17.7
2004-02-23 12:06:04 51°24.722 3°2.546 252.9 14.2 248 18.8
2004-02-23 12:07:04 51°24.641 3°2.195 257 14.2 253 18.8
2004-02-23 12:08:04 51°24.569 3°1.838 256.5 14.4 251 18.8
2004-02-23 12:09:04 51°24.496 3°1.482 259.9 14 252 17.1
2004-02-23 12:10:04 51°24.425 3°1.125 256.9 14.3 252 16.7
2004-02-23 12:11:04 51°24.356 3°0.769 258.9 14.1 249 16.6
2004-02-23 12:12:04 51°24.288 3°0.411 261.8 14.2 253 16.7
2004-02-23 12:13:04 51°24.219 3°0.055 258.7 13.9 254 16.7
2004-02-23 12:14:04 51°24.149 2°59.691 260.8 14.4 256 16.3
2004-02-23 12:15:04 51°24.079 2°59.331 261.5 14.3 251 16.3
2004-02-23 12:16:04 51°24.003 2°58.974 259.9 14.6 247 16.3
2004-02-23 12:17:04 51°23.93 2°58.61 260.8 14.3 250 16
2004-02-23 12:18:04 51°23.851 2°58.245 260.8 14.2 250 16.6
2004-02-23 12:19:04 51°23.775 2°57.882 260.7 14.3 256 14.4
2004-02-23 12:20:04 51°23.696 2°57.52 260.8 14.5 247 17.7
2004-02-23 12:21:04 51°23.622 2°57.158 259.7 14.6 256 16.8
2004-02-23 12:22:04 51°23.551 2°56.794 261.2 14.2 253 18.1
2004-02-23 12:23:04 51°23.502 2°56.428 268 14.1 260 18.7
2004-02-23 12:24:04 51°23.464 2°56.061 267.7 13.8 262 20.1
2004-02-23 12:25:04 51°23.423 2°55.696 269.1 14.1 256 18.7
2004-02-23 12:26:04 51°23.383 2°55.326 269.1 14.4 262 18.7
2004-02-23 12:27:04 51°23.354 2°54.956 272.6 14 266 17.3
2004-02-23 12:28:04 51°23.325 2°54.588 271.7 14.1 258 17.8
2004-02-23 12:29:04 51°23.295 2°54.224 272.5 14 261 20
2004-02-23 12:30:04 51°23.271 2°53.858 273.9 13.7 266 21
2004-02-23 12:31:04 51°23.243 2°53.497 271.8 13.3 262 20.6
2004-02-23 12:32:04 51°23.218 2°53.135 270.7 13.5 267 21.8
2004-02-23 12:33:04 51°23.194 2°52.77 270 14.2 263 21
2004-02-23 12:34:04 51°23.168 2°52.405 272.2 13.7 268 23.9
2004-02-23 12:35:04 51°23.143 2°52.037 273.2 13.8 261 23.4
2004-02-23 12:36:04 51°23.121 2°51.678 271.1 13.8 259 21.5
2004-02-23 12:37:04 51°23.091 2°51.322 267.4 13.8 260 18.6
2004-02-23 12:38:04 51°23.065 2°50.964 270.4 13.5 260 16
2004-02-23 12:39:04 51°23.041 2°50.61 270.9 14.1 262 14.8
2004-02-23 12:40:04 51°23.018 2°50.256 274 13.3 264 16.4
2004-02-23 12:41:04 51°22.998 2°49.899 271.7 13.6 263 18.5
2004-02-23 12:42:04 51°22.978 2°49.544 272.8 13.8 263 17.9
2004-02-23 12:43:04 51°22.96 2°49.188 274.3 13 268 17.8
2004-02-23 12:44:04 51°22.924 2°48.84 257.4 12.9 246 19.8
2004-02-23 12:45:04 51°22.795 2°48.54 238.4 14 226 19.5
2004-02-23 12:46:04 51°22.634 2°48.271 226.4 15.7 215 19.9
2004-02-23 12:47:04 51°22.469 2°48.019 223.8 14.3 219 19.7
2004-02-23 12:48:04 51°22.263 2°47.842 208.3 13.6 207 23.2
2004-02-23 12:49:04 51°22.041 2°47.717 203.9 13.9 200 25.4
2004-02-23 12:50:04 51°21.811 2°47.639 194.6 13.2 191 25.6
2004-02-23 12:51:04 51°21.579 2°47.605 193.5 13 189 25.7
2004-02-23 12:52:04 51°21.343 2°47.616 176 15 173 24.5
2004-02-23 12:53:04 51°21.119 2°47.7 172.1 14.7 171 20.9
2004-02-23 12:54:04 51°20.89 2°47.782 174 13.7 166 20.8
2004-02-23 12:55:04 51°20.664 2°47.871 169.8 13.1 156 21.8
2004-02-23 12:56:04 51°20.469 2°48.079 142.8 15 140 22.5
2004-02-23 12:57:04 51°20.291 2°48.326 145.6 14.8 140 24.4
2004-02-23 12:58:04 51°20.112 2°48.573 146.1 14.6 146 24.3
2004-02-23 12:59:04 51°19.926 2°48.809 148.9 15.6 142 23
2004-02-23 13:00:05 51°19.741 2°49.046 141.8 12.9 146 21
2004-02-23 13:01:04 51°19.554 2°49.272 148.6 15.2 143 17.6
2004-02-23 13:02:04 51°19.365 2°49.505 144.6 14.8 136 15.9
2004-02-23 13:03:04 51°19.175 2°49.744 148.4 13.7 146 13.9
2004-02-23 13:04:04 51°18.986 2°49.984 150.8 15.5 140 13.7
2004-02-23 13:05:04 51°18.8 2°50.234 142.9 14.3 141 15.7
2004-02-23 13:06:04 51°18.617 2°50.466 150.3 13.7 145 16.7
2004-02-23 13:07:04 51°18.432 2°50.716 140.9 16.4 134 16.1
2004-02-23 13:08:04 51°18.252 2°50.963 144.9 12.6 140 16.2
2004-02-23 13:09:04 51°18.064 2°51.193 144.4 14.1 142 14.5
2004-02-23 13:10:04 51°17.89 2°51.459 139 14.3 131 13
2004-02-23 13:11:04 51°17.712 2°51.723 136.4 12.8 132 13
2004-02-23 13:12:04 51°17.538 2°51.986 138.1 13.3 135 13.5
2004-02-23 13:13:04 51°17.364 2°52.242 144.3 14.8 138 12.8
2004-02-23 13:14:04 51°17.168 2°52.437 160.2 13.7 155 12.5
2004-02-23 13:15:04 51°16.954 2°52.594 161.4 15.1 156 12.4
2004-02-23 13:16:04 51°16.739 2°52.743 156.6 13.8 154 12.9
2004-02-23 13:17:04 51°16.543 2°52.932 153.1 12.8 146 14.8
2004-02-23 13:18:04 51°16.344 2°53.133 161.1 14.3 153 14.9
2004-02-23 13:19:04 51°16.145 2°53.32 156 13 147 14.9
2004-02-23 13:20:04 51°15.952 2°53.52 154.1 13.2 143 14.4
2004-02-23 13:21:04 51°15.747 2°53.714 153.8 16 145 13.7
2004-02-23 13:22:04 51°15.562 2°53.861 165.7 9.3 157 13.4
2004-02-23 13:23:04 51°15.437 2°53.978 160.4 8.3 152 12.8
2004-02-23 13:24:04 51°15.26 2°54.125 158.9 14.3 158 12.2
2004-02-23 13:25:04 51°15.06 2°54.28 166.1 13.2 151 11.5
2004-02-23 13:26:04 51°14.858 2°54.442 159.7 12.6 153 12.8
2004-02-23 13:27:04 51°14.665 2°54.631 155.7 14.5 146 12.7
2004-02-23 13:28:04 51°14.491 2°54.858 144.1 14 137 12.9
2004-02-23 13:29:04 51°14.356 2°55.12 135.8 12.9 128 13.1
2004-02-23 13:30:04 51°14.219 2°55.322 140 10.3 140 -999
2004-02-23 13:31:04 51°14.09 2°55.443 156.5 7.9 156 12.5
2004-02-23 13:32:04 51°13.979 2°55.526 157.5 7.1 156 13.2
2004-02-23 13:33:04 51°13.875 2°55.609 155.9 6.9 153 12.9
2004-02-23 13:34:04 51°13.774 2°55.689 150.3 6.9 149 12.9
2004-02-23 13:35:04 51°13.691 2°55.828 129.9 7.5 127 12.9
2004-02-23 13:36:04 51°13.637 2°55.962 123.2 5.1 121 13.3
2004-02-23 13:37:04 51°13.606 2°56.057 114.7 2.9 116 13
2004-02-23 13:38:06 51°13.592 2°56.103 120.5 0.3 117 10.7